Time;durP1;ratioP1;P1;durP2;ratioP2;P2;SDS_P1;SDS_P2;PMS_P1;PMS_P2;Temp;Humidity;BMP_temperature;BMP_pressure;BME280_temperature;BME280_humidity;BME280_pressure;Samples;Min_cycle;Max_cycle;Signal;HPM_P1;HPM_P2
2021/10/19 00:01:17;;;;;;;4.63;3.40;;;5.80;99.90;;;;;;5125888;28;20203;-83
2021/10/19 00:03:44;;;;;;;4.67;3.33;;;;;;;;;;5127342;28;20255;-83
2021/10/19 00:06:09;;;;;;;5.63;3.10;;;5.70;99.90;;;;;;5126867;28;20397;-82
2021/10/19 00:08:35;;;;;;;5.77;3.03;;;5.70;99.90;;;;;;5126619;28;20172;-82
2021/10/19 00:11:02;;;;;;;5.13;3.13;;;;;;;;;;5125914;28;20195;-82
2021/10/19 00:13:27;;;;;;;4.23;2.90;;;5.90;99.90;;;;;;5125428;28;20180;-81
2021/10/19 00:15:53;;;;;;;3.50;2.90;;;;;;;;;;5124886;28;20186;-81
2021/10/19 00:18:19;;;;;;;3.63;3.00;;;6.10;99.90;;;;;;5122880;28;20184;-81
2021/10/19 00:20:45;;;;;;;4.17;2.70;;;6.10;99.90;;;;;;5122764;28;20213;-82
2021/10/19 00:23:11;;;;;;;6.43;3.40;;;6.20;99.90;;;;;;5120418;28;20179;-81
2021/10/19 00:25:36;;;;;;;3.73;3.00;;;6.30;99.90;;;;;;5121073;28;20164;-82
2021/10/19 00:28:04;;;;;;;3.90;3.00;;;;;;;;;;5128752;28;20188;-82
2021/10/19 00:30:30;;;;;;;9.90;3.07;;;6.50;99.90;;;;;;5127221;28;20199;-81
2021/10/19 00:32:56;;;;;;;5.47;2.77;;;6.60;99.90;;;;;;5127451;28;20188;-81
2021/10/19 00:35:22;;;;;;;3.83;2.97;;;6.50;99.90;;;;;;5128402;28;20188;-81
2021/10/19 00:37:48;;;;;;;3.73;2.57;;;6.50;99.90;;;;;;5131990;28;20187;-82
2021/10/19 00:40:14;;;;;;;2.60;2.20;;;6.60;99.90;;;;;;5129557;28;20191;-82
2021/10/19 00:42:40;;;;;;;3.50;2.67;;;;;;;;;;5135479;28;20541;-81
2021/10/19 00:45:08;;;;;;;3.47;2.83;;;6.50;99.90;;;;;;5139485;28;20179;-81
2021/10/19 00:47:35;;;;;;;2.53;2.33;;;6.50;99.90;;;;;;5138264;28;20162;-81
2021/10/19 00:50:01;;;;;;;3.23;2.53;;;6.50;99.90;;;;;;5138786;28;20243;-81
2021/10/19 00:52:27;;;;;;;3.70;2.80;;;6.50;99.90;;;;;;5138299;28;20191;-81
2021/10/19 00:54:54;;;;;;;3.10;2.40;;;6.50;99.90;;;;;;5132756;28;20180;-81
2021/10/19 00:57:19;;;;;;;4.03;2.40;;;6.50;99.90;;;;;;5130602;28;20270;-81
2021/10/19 00:59:47;;;;;;;3.67;2.17;;;6.50;99.90;;;;;;5130869;28;20216;-83
2021/10/19 01:02:13;;;;;;;2.37;1.97;;;6.60;99.90;;;;;;5130890;28;20211;-81
2021/10/19 01:04:43;;;;;;;2.33;2.10;;;6.60;99.90;;;;;;5129890;28;20188;-81
2021/10/19 01:07:09;;;;;;;3.87;2.23;;;6.60;99.90;;;;;;5130109;28;20182;-82
2021/10/19 01:09:39;;;;;;;3.53;2.37;;;6.70;99.90;;;;;;5131538;28;20200;-82
2021/10/19 01:12:06;;;;;;;2.27;2.00;;;6.60;99.90;;;;;;5131352;28;20185;-81
2021/10/19 01:14:32;;;;;;;2.63;1.90;;;6.70;99.90;;;;;;5131470;28;20201;-82
2021/10/19 01:16:57;;;;;;;2.23;2.03;;;6.80;99.90;;;;;;5130348;28;20176;-83
2021/10/19 01:19:24;;;;;;;2.90;2.40;;;7.00;99.90;;;;;;5131053;28;20200;-82
2021/10/19 01:21:52;;;;;;;2.37;1.93;;;7.00;99.90;;;;;;5132060;28;20212;-82
2021/10/19 01:24:17;;;;;;;2.20;1.77;;;7.00;99.90;;;;;;5129578;28;20417;-82
2021/10/19 01:26:43;;;;;;;3.23;2.03;;;6.90;99.90;;;;;;5131062;28;20183;-82
2021/10/19 01:29:10;;;;;;;2.23;2.03;;;;;;;;;;5130499;28;20176;-82
2021/10/19 01:31:35;;;;;;;3.00;2.20;;;6.80;99.90;;;;;;5130222;28;20180;-82
2021/10/19 01:34:01;;;;;;;2.73;2.20;;;6.70;99.90;;;;;;5127952;28;20203;-82
2021/10/19 01:36:27;;;;;;;2.63;1.93;;;;;;;;;;5128850;28;20175;-82
2021/10/19 01:38:52;;;;;;;3.33;2.40;;;6.70;99.90;;;;;;5129489;28;20255;-82
2021/10/19 01:41:18;;;;;;;2.93;2.23;;;;;;;;;;5127314;28;20204;-81
2021/10/19 01:43:44;;;;;;;4.83;2.63;;;6.60;99.90;;;;;;5132689;28;20183;-82
2021/10/19 01:46:10;;;;;;;5.13;2.47;;;;;;;;;;5137422;28;20172;-81
2021/10/19 01:48:36;;;;;;;2.33;2.07;;;6.40;99.90;;;;;;5135908;28;20176;-81
2021/10/19 01:51:02;;;;;;;4.80;3.00;;;6.40;99.90;;;;;;5130123;28;20195;-80
2021/10/19 01:53:28;;;;;;;5.70;3.47;;;6.30;99.90;;;;;;5126836;28;20183;-81
2021/10/19 01:55:53;;;;;;;4.17;3.00;;;6.10;99.90;;;;;;5127448;28;20663;-81
2021/10/19 01:58:25;;;;;;;3.40;2.33;;;;;;;;;;5127045;28;20180;-83
2021/10/19 02:00:54;;;;;;;3.87;2.30;;;6.00;99.90;;;;;;5128146;28;20203;-81
2021/10/19 02:03:19;;;;;;;6.67;3.47;;;6.00;99.90;;;;;;5127565;28;20180;-80
2021/10/19 02:05:47;;;;;;;7.40;4.60;;;;;;;;;;5128205;28;20173;-81
2021/10/19 02:08:12;;;;;;;7.80;4.47;;;5.90;99.90;;;;;;5127880;28;20161;-81
2021/10/19 02:10:38;;;;;;;4.20;2.93;;;6.00;99.90;;;;;;5126471;28;20226;-81
2021/10/19 02:13:06;;;;;;;5.10;4.03;;;6.00;99.90;;;;;;5128051;28;20221;-81
2021/10/19 02:15:32;;;;;;;6.13;4.00;;;6.10;99.90;;;;;;5126727;28;20705;-81
2021/10/19 02:17:59;;;;;;;5.77;3.30;;;6.10;99.90;;;;;;5127929;28;20164;-81
2021/10/19 02:20:25;;;;;;;3.60;3.07;;;6.30;99.90;;;;;;5126329;28;20204;-81
2021/10/19 02:22:52;;;;;;;3.17;2.23;;;6.30;99.90;;;;;;5126487;28;20207;-80
2021/10/19 02:25:18;;;;;;;4.37;2.90;;;6.40;99.90;;;;;;5125653;28;20528;-81
2021/10/19 02:27:44;;;;;;;4.97;3.50;;;;;;;;;;5125275;28;20168;-81
2021/10/19 02:30:12;;;;;;;4.33;3.10;;;6.40;99.90;;;;;;5124485;28;20295;-81
2021/10/19 02:32:39;;;;;;;3.13;2.33;;;6.50;99.90;;;;;;5082325;28;1195025;-81
2021/10/19 02:35:07;;;;;;;4.40;2.83;;;6.50;99.90;;;;;;5125052;28;20246;-81
2021/10/19 02:37:34;;;;;;;6.70;2.67;;;6.50;99.90;;;;;;5125308;28;20234;-81
2021/10/19 02:39:59;;;;;;;4.17;3.70;;;6.50;99.90;;;;;;5125154;28;20590;-81
2021/10/19 02:42:25;;;;;;;4.90;2.93;;;;;;;;;;5119962;28;20276;-81
2021/10/19 02:44:51;;;;;;;3.30;2.60;;;6.40;99.90;;;;;;5123737;28;20182;-82
2021/10/19 02:47:17;;;;;;;2.97;2.13;;;;;;;;;;5124789;28;20239;-80
2021/10/19 02:49:43;;;;;;;3.87;2.77;;;6.20;99.90;;;;;;5125400;28;20206;-81
2021/10/19 02:52:08;;;;;;;2.73;2.30;;;6.20;99.90;;;;;;5126441;28;20175;-80
2021/10/19 02:54:36;;;;;;;2.73;2.20;;;;;;;;;;5125484;28;20212;-81
2021/10/19 02:57:02;;;;;;;3.97;3.03;;;6.10;99.90;;;;;;5126896;28;20171;-81
2021/10/19 02:59:27;;;;;;;3.90;2.43;;;6.10;99.90;;;;;;5126866;28;20197;-80
2021/10/19 03:01:53;;;;;;;4.33;3.73;;;;;;;;;;5126369;28;20203;-81
2021/10/19 03:04:19;;;;;;;3.60;3.03;;;6.00;99.90;;;;;;5126127;28;20626;-81
2021/10/19 03:06:45;;;;;;;6.33;3.90;;;6.00;99.90;;;;;;5125561;28;20191;-81
2021/10/19 03:09:10;;;;;;;5.17;3.53;;;6.00;99.90;;;;;;5126260;28;20178;-81
2021/10/19 03:11:36;;;;;;;5.03;3.50;;;6.00;99.90;;;;;;5124727;28;20187;-81
2021/10/19 03:14:02;;;;;;;4.37;2.77;;;6.00;99.90;;;;;;5125936;28;20180;-81
2021/10/19 03:16:28;;;;;;;3.40;2.70;;;;;;;;;;5123377;28;20181;-81
2021/10/19 03:18:53;;;;;;;4.13;2.80;;;6.00;99.90;;;;;;5123314;28;20513;-81
2021/10/19 03:21:19;;;;;;;3.07;2.77;;;6.00;99.90;;;;;;5123027;28;20219;-81
2021/10/19 03:23:45;;;;;;;3.17;2.27;;;6.10;99.90;;;;;;5121615;28;20176;-80
2021/10/19 03:26:12;;;;;;;3.37;2.20;;;6.10;99.90;;;;;;5122232;28;20187;-81
2021/10/19 03:28:38;;;;;;;2.77;2.07;;;6.10;99.90;;;;;;5117570;28;20176;-81
2021/10/19 03:31:04;;;;;;;2.53;1.97;;;6.10;99.90;;;;;;5117945;28;20191;-80
2021/10/19 03:33:30;;;;;;;3.37;2.50;;;6.10;99.90;;;;;;5123429;28;20212;-81
2021/10/19 03:35:56;;;;;;;2.17;1.97;;;;;;;;;;5124372;28;20227;-81
2021/10/19 03:38:21;;;;;;;2.87;1.90;;;6.10;99.90;;;;;;5124385;28;20176;-81
2021/10/19 03:40:47;;;;;;;2.13;1.93;;;6.20;99.90;;;;;;5125479;28;20203;-80
2021/10/19 03:43:13;;;;;;;3.80;2.53;;;;;;;;;;5128285;28;20236;-81
2021/10/19 03:45:39;;;;;;;2.57;1.87;;;6.20;99.90;;;;;;5126153;28;20184;-80
2021/10/19 03:48:05;;;;;;;4.20;2.10;;;6.10;99.90;;;;;;5128084;28;20250;-82
2021/10/19 03:50:31;;;;;;;3.07;2.10;;;;;;;;;;5129013;28;20297;-80
2021/10/19 03:52:57;;;;;;;2.50;2.30;;;6.10;99.90;;;;;;5135394;28;20168;-83
2021/10/19 03:55:23;;;;;;;3.67;2.47;;;6.00;99.90;;;;;;5135320;28;20164;-80
2021/10/19 03:57:49;;;;;;;6.13;2.90;;;6.00;99.90;;;;;;5134511;28;20226;-81
2021/10/19 04:00:15;;;;;;;3.77;2.33;;;;;;;;;;5125274;28;20216;-80
2021/10/19 04:02:41;;;;;;;5.60;2.50;;;6.00;99.90;;;;;;5125532;28;20204;-81
2021/10/19 04:05:07;;;;;;;2.87;2.40;;;6.00;99.90;;;;;;5124475;28;20235;-81
2021/10/19 04:07:33;;;;;;;2.67;2.20;;;6.00;99.90;;;;;;5123812;28;20194;-81
2021/10/19 04:09:59;;;;;;;2.80;2.23;;;;;;;;;;5124553;28;20740;-81
2021/10/19 04:12:24;;;;;;;4.03;2.20;;;6.00;99.90;;;;;;5124889;28;20247;-81
2021/10/19 04:14:50;;;;;;;2.30;2.10;;;6.00;99.90;;;;;;5123489;28;20649;-80
2021/10/19 04:17:16;;;;;;;6.27;1.90;;;;;;;;;;5123796;28;20185;-81
2021/10/19 04:19:42;;;;;;;2.60;2.10;;;6.10;99.90;;;;;;5123795;28;20602;-81
2021/10/19 04:22:08;;;;;;;3.37;2.60;;;;;;;;;;5122603;28;20204;-81
2021/10/19 04:24:34;;;;;;;2.97;2.23;;;6.10;99.90;;;;;;5124213;28;20531;-80
2021/10/19 04:27:00;;;;;;;4.87;2.63;;;;;;;;;;5122998;28;20181;-81
2021/10/19 04:29:26;;;;;;;3.10;2.10;;;6.20;99.90;;;;;;5122937;28;20199;-81
2021/10/19 04:31:51;;;;;;;3.20;2.27;;;6.30;99.90;;;;;;5123004;28;20180;-80
2021/10/19 04:34:17;;;;;;;2.90;2.53;;;6.30;99.90;;;;;;5123227;28;20188;-81
2021/10/19 04:36:43;;;;;;;6.93;3.37;;;;;;;;;;5123205;28;20190;-81
2021/10/19 04:39:09;;;;;;;7.03;3.20;;;6.50;99.90;;;;;;5123767;28;20178;-80
2021/10/19 04:41:37;;;;;;;8.57;4.13;;;;;;;;;;5121812;28;20223;-80
2021/10/19 04:44:03;;;;;;;6.27;3.07;;;6.50;99.90;;;;;;5122536;28;20165;-81
2021/10/19 04:46:29;;;;;;;3.83;2.60;;;;;;;;;;5124625;28;20173;-81
2021/10/19 04:48:55;;;;;;;3.83;2.37;;;;;;;;;;5126250;28;20168;-81
2021/10/19 04:51:20;;;;;;;2.63;2.07;;;6.60;99.90;;;;;;5122995;28;20583;-81
2021/10/19 04:53:46;;;;;;;2.50;2.10;;;6.60;99.90;;;;;;5127537;28;20176;-80
2021/10/19 04:56:12;;;;;;;3.10;2.10;;;6.60;99.90;;;;;;5123038;28;20196;-81
2021/10/19 04:58:37;;;;;;;4.80;2.10;;;6.70;99.90;;;;;;5125638;28;20191;-81
2021/10/19 05:01:03;;;;;;;2.30;2.07;;;6.70;99.90;;;;;;5124122;28;20253;-80
2021/10/19 05:03:28;;;;;;;3.03;1.90;;;6.70;99.90;;;;;;5124140;28;20179;-82
2021/10/19 05:05:54;;;;;;;3.23;2.30;;;6.70;99.90;;;;;;5122955;28;20613;-80
2021/10/19 05:08:20;;;;;;;5.20;2.87;;;6.70;99.90;;;;;;5121999;28;20190;-81
2021/10/19 05:10:45;;;;;;;2.77;2.23;;;6.80;99.90;;;;;;5122456;28;20201;-81
2021/10/19 05:13:12;;;;;;;2.50;2.07;;;;;;;;;;5122144;28;20255;-81
2021/10/19 05:15:37;;;;;;;2.67;2.20;;;6.80;99.90;;;;;;5122239;28;20263;-81
2021/10/19 05:18:04;;;;;;;2.27;1.97;;;;;;;;;;5122151;28;20632;-80
2021/10/19 05:20:29;;;;;;;3.40;2.00;;;6.80;99.90;;;;;;5122062;28;20251;-80
2021/10/19 05:22:56;;;;;;;6.83;1.93;;;;;;;;;;5121702;28;20209;-80
2021/10/19 05:25:23;;;;;;;3.07;2.10;;;6.80;99.90;;;;;;5122081;28;20182;-81
2021/10/19 05:27:49;;;;;;;2.67;2.10;;;6.90;99.90;;;;;;5128282;28;20178;-80
2021/10/19 05:30:15;;;;;;;2.47;2.17;;;6.90;99.90;;;;;;5128534;28;20675;-81
2021/10/19 05:32:40;;;;;;;2.77;1.93;;;6.90;99.90;;;;;;5127588;28;20202;-80
2021/10/19 05:35:07;;;;;;;2.47;2.00;;;7.00;99.90;;;;;;5125536;28;20206;-81
2021/10/19 05:37:32;;;;;;;2.53;1.97;;;7.00;99.90;;;;;;5127245;28;20188;-80
2021/10/19 05:39:59;;;;;;;2.77;2.23;;;7.10;99.90;;;;;;5126008;28;20191;-80
2021/10/19 05:42:24;;;;;;;4.07;2.50;;;7.10;99.90;;;;;;5125711;28;20217;-84
2021/10/19 05:44:51;;;;;;;2.40;1.83;;;;;;;;;;5125535;28;20676;-81
2021/10/19 05:47:17;;;;;;;2.07;1.70;;;7.20;99.90;;;;;;5125634;28;20179;-81
2021/10/19 05:49:42;;;;;;;2.90;2.00;;;7.30;99.90;;;;;;5126458;28;20273;-80
2021/10/19 05:52:08;;;;;;;2.43;1.90;;;;;;;;;;5125952;28;20179;-80
2021/10/19 05:54:34;;;;;;;2.70;2.00;;;7.40;99.90;;;;;;5126645;28;20535;-82
2021/10/19 05:57:00;;;;;;;1.83;1.73;;;;;;;;;;5127409;28;20188;-80
2021/10/19 05:59:26;;;;;;;2.37;1.90;;;7.40;99.90;;;;;;5131690;28;20222;-80
2021/10/19 06:01:52;;;;;;;2.00;1.60;;;;;;;;;;5136434;28;20197;-80
2021/10/19 06:04:17;;;;;;;2.27;1.87;;;7.50;99.90;;;;;;5138264;28;20274;-80
2021/10/19 06:06:57;;;;;;;4.77;1.87;;;7.50;99.90;;;;;;5131337;28;20176;-81
2021/10/19 06:09:23;;;;;;;3.00;2.30;;;7.60;99.90;;;;;;5126072;28;20198;-81
2021/10/19 06:11:49;;;;;;;2.37;2.00;;;7.60;99.90;;;;;;5126482;28;20175;-81
2021/10/19 06:14:16;;;;;;;2.10;1.70;;;7.60;99.90;;;;;;5124564;28;20186;-81
2021/10/19 06:16:42;;;;;;;2.50;1.87;;;7.70;99.90;;;;;;5123555;28;20592;-81
2021/10/19 06:19:08;;;;;;;2.10;1.60;;;7.80;99.90;;;;;;5127848;28;20179;-80
2021/10/19 06:21:34;;;;;;;3.97;2.10;;;7.80;99.90;;;;;;5125571;28;20749;-82
2021/10/19 06:23:59;;;;;;;2.13;1.93;;;7.90;99.90;;;;;;5122518;28;20178;-81
2021/10/19 06:26:25;;;;;;;1.93;1.53;;;7.90;99.90;;;;;;5122339;28;20185;-81
2021/10/19 06:28:51;;;;;;;1.70;1.60;;;7.90;99.90;;;;;;5120457;28;20542;-81
2021/10/19 06:31:16;;;;;;;2.03;1.63;;;8.00;99.90;;;;;;5121472;28;20742;-81
2021/10/19 06:33:42;;;;;;;3.30;1.90;;;8.10;99.90;;;;;;5118951;28;20224;-82
2021/10/19 06:36:08;;;;;;;2.40;1.80;;;;;;;;;;5117715;28;20179;-81
2021/10/19 06:38:34;;;;;;;2.57;2.10;;;8.30;99.90;;;;;;5116272;28;20175;-81
2021/10/19 06:40:59;;;;;;;2.60;1.93;;;8.30;99.90;;;;;;5121019;28;20214;-82
2021/10/19 06:43:25;;;;;;;2.50;1.90;;;;;;;;;;5125474;28;20178;-81
2021/10/19 06:45:51;;;;;;;2.03;1.70;;;8.30;99.90;;;;;;5122659;28;20547;-81
2021/10/19 06:48:17;;;;;;;3.47;2.03;;;;;;;;;;5122906;28;20178;-81
2021/10/19 06:50:43;;;;;;;3.63;2.03;;;8.40;99.90;;;;;;5122308;28;20199;-81
2021/10/19 06:53:08;;;;;;;2.53;1.90;;;8.50;99.90;;;;;;5122672;28;20204;-82
2021/10/19 06:55:34;;;;;;;4.17;1.77;;;8.50;99.90;;;;;;5123377;28;20574;-81
2021/10/19 06:58:00;;;;;;;4.10;1.97;;;8.60;99.90;;;;;;5122481;28;20586;-81
2021/10/19 07:00:25;;;;;;;2.80;1.80;;;8.70;99.90;;;;;;5124129;28;20187;-81
2021/10/19 07:02:51;;;;;;;3.13;1.90;;;8.70;99.90;;;;;;5123938;28;20286;-81
2021/10/19 07:05:17;;;;;;;2.00;1.50;;;;;;;;;;5124262;28;20227;-81
2021/10/19 07:07:43;;;;;;;2.80;1.90;;;8.90;99.90;;;;;;5123918;28;20178;-81
2021/10/19 07:10:11;;;;;;;2.00;1.80;;;9.00;99.90;;;;;;5123644;28;20718;-81
2021/10/19 07:12:39;;;;;;;3.77;1.90;;;9.00;99.90;;;;;;5123522;28;20183;-82
2021/10/19 07:15:06;;;;;;;2.47;2.23;;;9.10;99.90;;;;;;5124023;28;20185;-82
2021/10/19 07:17:31;;;;;;;4.83;1.70;;;9.20;99.90;;;;;;5122246;28;20179;-82
2021/10/19 07:19:57;;;;;;;2.10;1.90;;;9.30;99.90;;;;;;5121794;28;20225;-81
2021/10/19 07:22:25;;;;;;;3.97;1.80;;;9.30;99.90;;;;;;5121732;28;20229;-81
2021/10/19 07:24:50;;;;;;;1.87;1.73;;;9.40;99.90;;;;;;5121157;28;20712;-81
2021/10/19 07:27:16;;;;;;;6.90;3.27;;;;;;;;;;5120410;28;20199;-81
2021/10/19 07:29:44;;;;;;;5.77;3.17;;;9.50;99.90;;;;;;5120410;28;20191;-81
2021/10/19 07:32:09;;;;;;;6.80;3.07;;;9.50;99.90;;;;;;5119936;28;20559;-82
2021/10/19 07:34:35;;;;;;;6.20;4.27;;;9.50;99.90;;;;;;5121864;28;20171;-82
2021/10/19 07:37:01;;;;;;;6.33;3.57;;;9.50;99.90;;;;;;5121687;28;20179;-81
2021/10/19 07:39:26;;;;;;;10.63;6.67;;;9.60;99.90;;;;;;5121867;28;20203;-81
2021/10/19 07:41:52;;;;;;;4.20;2.83;;;9.60;99.90;;;;;;5118916;28;20262;-81
2021/10/19 07:44:18;;;;;;;9.90;6.33;;;;;;;;;;5116722;28;20179;-81
2021/10/19 07:46:46;;;;;;;7.07;4.27;;;9.70;99.90;;;;;;5122747;28;20172;-82
2021/10/19 07:49:12;;;;;;;8.67;5.83;;;9.80;99.90;;;;;;5122760;28;20176;-81
2021/10/19 07:51:38;;;;;;;7.53;4.80;;;9.90;99.90;;;;;;5124470;28;20171;-82
2021/10/19 07:54:03;;;;;;;20.13;11.03;;;9.90;99.90;;;;;;5123091;28;20180;-81
2021/10/19 07:56:29;;;;;;;14.63;8.83;;;9.90;99.90;;;;;;5122783;28;20282;-82
2021/10/19 07:58:55;;;;;;;29.93;14.63;;;10.00;99.90;;;;;;5123381;28;20186;-82
2021/10/19 08:01:21;;;;;;;17.27;8.73;;;10.20;99.90;;;;;;5124175;28;20260;-82
2021/10/19 08:03:47;;;;;;;13.60;8.07;;;10.30;99.90;;;;;;5125204;28;20168;-82
2021/10/19 08:06:12;;;;;;;17.07;10.17;;;10.50;99.90;;;;;;5125958;28;20237;-82
2021/10/19 08:08:38;;;;;;;14.67;8.90;;;10.60;99.90;;;;;;5136221;28;20194;-81
2021/10/19 08:11:05;;;;;;;8.07;5.50;;;10.70;99.90;;;;;;5136502;28;20247;-82
2021/10/19 08:13:31;;;;;;;7.67;4.00;;;10.80;99.90;;;;;;5135103;28;20179;-82
2021/10/19 08:15:57;;;;;;;7.37;3.53;;;10.90;99.90;;;;;;5126350;28;20645;-82
2021/10/19 08:18:23;;;;;;;12.00;4.33;;;11.00;99.90;;;;;;5121852;28;20186;-82
2021/10/19 08:20:48;;;;;;;10.03;4.13;;;11.10;99.90;;;;;;5122216;28;20601;-82
2021/10/19 08:23:15;;;;;;;3.67;2.60;;;11.20;99.90;;;;;;5122834;28;20637;-82
2021/10/19 08:25:41;;;;;;;3.23;2.03;;;11.30;99.90;;;;;;5122658;28;20551;-83
2021/10/19 08:28:07;;;;;;;2.20;1.87;;;11.30;99.90;;;;;;5121784;28;20188;-82
2021/10/19 08:30:33;;;;;;;2.60;1.60;;;11.40;99.90;;;;;;5123449;28;20604;-83
2021/10/19 08:32:59;;;;;;;2.57;2.00;;;11.40;99.90;;;;;;5121943;28;20195;-83
2021/10/19 08:35:25;;;;;;;3.10;1.93;;;11.40;99.90;;;;;;5122212;28;20186;-81
2021/10/19 08:37:52;;;;;;;2.97;2.07;;;11.40;99.90;;;;;;5122338;28;20175;-83
2021/10/19 08:40:19;;;;;;;2.70;1.90;;;11.40;99.90;;;;;;5122651;28;20196;-83
2021/10/19 08:42:47;;;;;;;3.03;1.80;;;11.40;99.90;;;;;;5124387;28;20202;-83
2021/10/19 08:45:15;;;;;;;1.97;1.60;;;11.30;99.90;;;;;;5125150;28;20171;-83
2021/10/19 08:47:45;;;;;;;4.47;1.87;;;11.40;99.90;;;;;;5126956;28;20171;-83
2021/10/19 08:50:14;;;;;;;2.10;1.80;;;11.40;99.90;;;;;;5128735;28;20187;-82
2021/10/19 08:52:40;;;;;;;2.33;1.87;;;11.40;99.90;;;;;;5122249;28;20396;-82
2021/10/19 08:55:06;;;;;;;3.97;2.60;;;11.50;99.90;;;;;;5123861;28;20176;-83
2021/10/19 08:57:32;;;;;;;2.43;1.60;;;11.60;99.90;;;;;;5123742;28;20182;-82
2021/10/19 08:59:58;;;;;;;3.27;1.90;;;11.60;99.90;;;;;;5120758;28;20195;-83
2021/10/19 09:02:45;;;;;;;3.50;1.60;;;11.60;99.90;;;;;;5126279;28;20195;-83
2021/10/19 09:05:16;;;;;;;3.10;1.60;;;11.70;99.90;;;;;;5125300;28;20191;-83
2021/10/19 09:07:59;;;;;;;3.60;1.80;;;11.60;99.90;;;;;;5126180;28;20171;-83
2021/10/19 09:10:26;;;;;;;2.83;1.93;;;11.70;99.90;;;;;;5126457;28;20213;-83
2021/10/19 09:12:54;;;;;;;4.40;1.90;;;11.70;99.90;;;;;;5125908;28;20195;-82
2021/10/19 09:15:23;;;;;;;2.73;1.60;;;11.70;99.90;;;;;;5126176;28;20179;-82
2021/10/19 09:17:49;;;;;;;4.03;1.80;;;11.80;99.90;;;;;;5124108;28;20167;-83
2021/10/19 09:20:17;;;;;;;2.90;1.40;;;11.90;99.90;;;;;;5123128;28;20252;-83
2021/10/19 09:22:59;;;;;;;4.50;1.73;;;12.00;99.90;;;;;;5122376;28;20660;-80
2021/10/19 09:25:32;;;;;;;3.70;1.80;;;12.10;99.90;;;;;;5125138;28;20156;-82
2021/10/19 09:28:00;;;;;;;6.30;1.80;;;12.20;99.90;;;;;;5123522;28;20155;-82
2021/10/19 09:30:40;;;;;;;5.93;1.67;;;12.30;99.90;;;;;;5124155;28;20227;-83
2021/10/19 09:33:09;;;;;;;8.77;2.97;;;12.30;99.90;;;;;;5120957;28;20291;-83
2021/10/19 09:35:36;;;;;;;5.90;1.80;;;12.40;99.90;;;;;;5121413;28;20174;-83
2021/10/19 09:38:05;;;;;;;6.03;2.00;;;12.40;99.90;;;;;;5119842;28;20171;-82
2021/10/19 09:40:36;;;;;;;8.67;2.73;;;12.40;99.90;;;;;;5119049;28;20677;-82
2021/10/19 09:43:08;;;;;;;10.87;3.17;;;12.50;99.90;;;;;;5118752;28;20199;-83
2021/10/19 09:45:34;;;;;;;5.27;2.77;;;12.60;99.90;;;;;;5117343;28;20195;-82
2021/10/19 09:48:01;;;;;;;8.47;3.23;;;12.70;99.90;;;;;;5116998;28;20182;-82
2021/10/19 09:50:29;;;;;;;5.20;2.60;;;12.80;99.90;;;;;;5121111;28;20202;-82
2021/10/19 09:52:56;;;;;;;5.13;2.27;;;12.90;99.90;;;;;;5125092;28;20182;-83
2021/10/19 09:55:22;;;;;;;5.00;2.03;;;13.00;99.90;;;;;;5126322;28;20167;-83
2021/10/19 09:57:52;;;;;;;12.37;3.70;;;13.00;99.90;;;;;;5124484;28;20232;-83
2021/10/19 10:00:20;;;;;;;5.47;2.53;;;13.10;99.90;;;;;;5125483;28;20196;-83
2021/10/19 10:02:46;;;;;;;3.47;2.40;;;13.10;99.90;;;;;;5124982;28;20214;-83
2021/10/19 10:05:12;;;;;;;3.17;1.67;;;13.20;99.90;;;;;;5125997;28;20183;-83
2021/10/19 10:07:44;;;;;;;4.43;1.67;;;13.30;99.90;;;;;;5125796;28;20175;-83
2021/10/19 10:10:11;;;;;;;3.40;1.63;;;13.50;99.90;;;;;;5126245;28;20211;-83
2021/10/19 10:12:37;;;;;;;5.57;1.80;;;13.60;99.90;;;;;;5126667;28;20535;-83
2021/10/19 10:15:04;;;;;;;4.07;2.30;;;13.70;99.90;;;;;;5128198;28;20167;-83
2021/10/19 10:17:29;;;;;;;2.80;1.87;;;13.80;99.90;;;;;;5139199;28;20227;-82
2021/10/19 10:20:06;;;;;;;5.03;2.40;;;13.90;99.90;;;;;;5139355;28;20242;-82
2021/10/19 10:22:32;;;;;;;3.80;2.33;;;13.90;99.90;;;;;;5134702;28;20672;-84
2021/10/19 10:25:08;;;;;;;6.10;2.20;;;14.00;99.90;;;;;;5125434;27;20201;-83
2021/10/19 10:27:34;;;;;;;4.33;2.07;;;14.10;99.90;;;;;;5134012;27;20621;-83
2021/10/19 10:30:00;;;;;;;4.47;2.17;;;16.00;99.90;;;;;;5135354;27;20739;-83
2021/10/19 10:32:35;;;;;;;6.60;1.80;;;14.40;99.90;;;;;;5135764;27;20192;-81
2021/10/19 10:35:02;;;;;;;4.93;2.20;;;14.60;99.90;;;;;;5126417;27;20218;-82
2021/10/19 10:37:52;;;;;;;7.53;2.20;;;14.80;99.90;;;;;;5134449;27;20183;-82
2021/10/19 10:40:35;;;;;;;4.30;3.00;;;15.00;99.90;;;;;;5126525;27;20200;-82
2021/10/19 10:43:19;;;;;;;3.57;1.60;;;15.20;99.90;;;;;;5135690;27;20209;-82
2021/10/19 10:45:49;;;;;;;3.97;3.67;;;15.40;99.90;;;;;;5137777;27;20255;-82
2021/10/19 10:48:17;;;;;;;4.03;2.50;;;15.60;99.90;;;;;;5141016;27;20186;-82
2021/10/19 10:50:42;;;;;;;4.67;1.60;;;15.70;99.90;;;;;;5131442;27;20605;-82
2021/10/19 10:53:11;;;;;;;3.50;2.40;;;15.70;99.90;;;;;;5132140;27;20177;-81
2021/10/19 10:55:38;;;;;;;3.97;2.40;;;15.80;99.90;;;;;;5144533;27;20526;-82
2021/10/19 10:58:05;;;;;;;2.43;1.80;;;15.80;99.90;;;;;;5141430;27;20174;-83
2021/10/19 11:00:30;;;;;;;3.83;2.60;;;15.90;99.90;;;;;;5147685;27;20543;-83
2021/10/19 11:03:14;;;;;;;2.23;1.73;;;15.90;99.90;;;;;;5146914;27;20675;-83
2021/10/19 11:05:53;;;;;;;3.57;2.63;;;16.00;99.90;;;;;;5146530;27;20177;-83
2021/10/19 11:08:26;;;;;;;3.50;2.20;;;16.00;99.90;;;;;;5148272;27;20202;-83
2021/10/19 11:11:20;;;;;;;3.83;2.90;;;16.20;99.90;;;;;;5149001;27;20193;-82
2021/10/19 11:13:59;;;;;;;4.50;3.37;;;16.10;99.90;;;;;;5147225;27;20244;-82
2021/10/19 11:16:30;;;;;;;4.07;3.10;;;16.10;99.90;;;;;;5146814;27;20580;-82
2021/10/19 11:18:56;;;;;;;4.17;2.60;;;16.00;99.90;;;;;;5145599;27;20165;-83
2021/10/19 11:21:22;;;;;;;8.73;4.37;;;15.90;99.90;;;;;;5144909;27;20697;-83
2021/10/19 11:23:50;;;;;;;7.00;4.90;;;15.90;99.90;;;;;;5144792;27;20173;-82
2021/10/19 11:26:16;;;;;;;7.93;5.27;;;15.80;99.90;;;;;;5144811;27;20169;-83
2021/10/19 11:28:44;;;;;;;2.77;1.90;;;15.80;99.90;;;;;;5146612;27;20193;-82
2021/10/19 11:31:11;;;;;;;3.77;2.23;;;15.80;99.90;;;;;;5148492;27;20194;-82
2021/10/19 11:33:45;;;;;;;4.43;2.40;;;15.70;99.90;;;;;;5145966;27;20184;-83
2021/10/19 11:36:12;;;;;;;2.53;1.77;;;15.70;99.90;;;;;;5144249;27;20645;-82
2021/10/19 11:38:47;;;;;;;2.30;1.73;;;15.60;99.90;;;;;;5144144;27;20263;-83
2021/10/19 11:41:18;;;;;;;4.27;2.73;;;15.50;99.90;;;;;;5144229;27;20207;-83
2021/10/19 11:43:48;;;;;;;4.47;2.67;;;15.50;99.90;;;;;;5143619;27;20173;-83
2021/10/19 11:46:18;;;;;;;4.53;2.73;;;15.50;99.90;;;;;;5144553;27;20178;-82
2021/10/19 11:48:46;;;;;;;2.90;2.17;;;15.50;99.90;;;;;;5144647;27;20193;-82
2021/10/19 11:51:13;;;;;;;5.50;3.53;;;15.50;99.90;;;;;;5143712;27;20195;-83
2021/10/19 11:53:41;;;;;;;6.30;3.70;;;15.50;99.90;;;;;;5143959;27;20179;-82
2021/10/19 11:56:09;;;;;;;3.80;2.53;;;15.50;99.90;;;;;;5145805;27;20179;-82
2021/10/19 11:58:35;;;;;;;8.10;4.00;;;15.50;99.90;;;;;;5145548;27;20202;-83
2021/10/19 12:01:01;;;;;;;6.50;3.20;;;15.50;99.90;;;;;;5146336;27;20734;-83
2021/10/19 12:03:33;;;;;;;4.17;2.77;;;15.50;99.90;;;;;;5145138;27;20176;-82
2021/10/19 12:05:59;;;;;;;4.30;2.43;;;15.40;99.90;;;;;;5145443;27;20228;-83
2021/10/19 12:08:30;;;;;;;2.87;2.13;;;15.40;99.90;;;;;;5148634;27;20174;-82
2021/10/19 12:10:56;;;;;;;1.80;1.40;;;15.30;99.90;;;;;;5157787;27;20211;-82
2021/10/19 12:13:26;;;;;;;8.33;2.63;;;15.20;99.90;;;;;;5157335;27;20179;-82
2021/10/19 12:15:55;;;;;;;4.67;2.57;;;15.20;99.90;;;;;;5156200;27;20200;-82
2021/10/19 12:18:21;;;;;;;2.23;2.03;;;15.20;99.90;;;;;;5143877;27;20187;-83
2021/10/19 12:20:48;;;;;;;4.43;2.83;;;15.00;99.90;;;;;;5141767;27;20203;-82
2021/10/19 12:23:16;;;;;;;3.43;2.37;;;15.00;99.90;;;;;;5142410;27;20275;-82
2021/10/19 12:25:47;;;;;;;3.63;2.27;;;14.90;99.90;;;;;;5143672;27;20187;-82
2021/10/19 12:28:25;;;;;;;3.97;2.60;;;14.90;99.90;;;;;;5142647;27;20168;-82
2021/10/19 12:30:53;;;;;;;3.00;2.47;;;14.90;99.90;;;;;;5140653;28;20198;-82
2021/10/19 12:33:24;;;;;;;8.80;3.30;;;14.90;99.90;;;;;;5141453;28;20186;-82
2021/10/19 12:35:55;;;;;;;2.40;1.80;;;14.90;99.90;;;;;;5142828;27;20164;-82
2021/10/19 12:38:28;;;;;;;7.43;2.50;;;15.10;99.90;;;;;;5142374;27;20172;-82
2021/10/19 12:41:03;;;;;;;3.47;2.10;;;15.00;99.90;;;;;;5141801;27;20289;-82
2021/10/19 12:43:29;;;;;;;4.20;2.63;;;15.00;99.90;;;;;;5138862;27;20173;-82
2021/10/19 12:45:55;;;;;;;2.67;1.83;;;;;;;;;;5139839;27;20703;-82
2021/10/19 12:48:21;;;;;;;2.40;1.73;;;15.10;99.90;;;;;;5142697;27;20243;-82
2021/10/19 12:50:47;;;;;;;3.00;1.60;;;;;;;;;;5146458;27;20283;-82
2021/10/19 12:53:12;;;;;;;2.50;1.80;;;15.40;99.90;;;;;;5148124;27;20171;-82
2021/10/19 12:55:38;;;;;;;4.10;2.53;;;15.30;99.90;;;;;;5146329;27;20227;-82
2021/10/19 12:58:04;;;;;;;3.83;2.30;;;15.50;99.90;;;;;;5146845;27;20196;-82
2021/10/19 13:00:29;;;;;;;3.23;2.27;;;15.60;99.90;;;;;;5147198;27;20195;-82
2021/10/19 13:02:55;;;;;;;3.23;2.20;;;;;;;;;;5147811;27;20214;-82
2021/10/19 13:05:21;;;;;;;4.33;1.80;;;15.70;99.90;;;;;;5146376;27;20175;-82